Dades meteomassalio
Diari Summary for Octubre 8, 2017 Units:  English    Metric   Both
« Previous Day
Next Day »
Diari Semanal Mensual Anual Personalitzat
  Maxima: Minima: Mijana:
Temperatura: TemperatureC °F 5.0 °F 13.3 °F
Rosada: DewpointC °F -2.8 °F 4.2 °F
Humitat: Humidity % 24 % 60 %
Velocitat del vent: WindSpeedKMH mph 0.0 mph 3.1 mph
Racha vent: WindSpeedGustKMH mph - -
Vent:- - SW
Pressio: PressurehPa in 1019.9 in -
Pluja: 0.0 in    
Historical Graphs
 
 
Tabular Data for Octubre 8, 2017
Time Temperature Dew Point Pressure Wind Wind Speed Wind Gust Humidity Rainfall Rate (Hourly) solar Conditions
TemperatureC °F DewpointC °F PressurehPa in Calm     Humidity % HourlyPrecipMM in SolarRadiationWatts/m^2 W/m2 Conditions
00:02 10.0 °F 6.7 °F 1024.6 in Calm     80 % 0.0 in 0.0 W/m2 CLR
00:07 9.4 °F 6.3 °F 1024.6 in Calm     81 % 0.0 in 0.0 W/m2 CLR
00:17 9.4 °F 6.3 °F 1024.6 in Calm     81 % 0.0 in 0.0 W/m2 CLR
00:22 9.4 °F 6.5 °F 1024.6 in Calm     82 % 0.0 in 0.0 W/m2 CLR
00:27 9.4 °F 6.5 °F 1024.6 in Calm     82 % 0.0 in 0.0 W/m2 CLR
00:32 9.4 °F 6.7 °F 1024.6 in Calm     83 % 0.0 in 0.0 W/m2 CLR
00:42 9.4 °F 6.7 °F 1024.3 in Calm     83 % 0.0 in 0.0 W/m2 CLR
00:47 9.4 °F 6.7 °F 1024.3 in Calm     83 % 0.0 in 0.0 W/m2 CLR
00:52 9.4 °F 6.9 °F 1024.3 in Calm     84 % 0.0 in 0.0 W/m2 CLR
00:57 9.4 °F 6.9 °F 1024.3 in Calm     84 % 0.0 in 0.0 W/m2 CLR
01:02 8.9 °F 6.3 °F 1024.3 in Calm     84 % 0.0 in 0.0 W/m2 CLR
01:07 8.9 °F 6.3 °F 1024.3 in Calm     84 % 0.0 in 0.0 W/m2 CLR
01:12 8.9 °F 6.3 °F 1024.3 in Calm     84 % 0.0 in 0.0 W/m2 CLR
01:22 8.9 °F 6.3 °F 1024.3 in Calm     84 % 0.0 in 0.0 W/m2 CLR
01:27 8.9 °F 6.3 °F 1024.3 in Calm     84 % 0.0 in 0.0 W/m2 CLR
01:32 8.9 °F 6.5 °F 1024.3 in Calm     85 % 0.0 in 0.0 W/m2 CLR
01:37 8.9 °F 6.5 °F 1024.3 in SE 3.7 mph 3.7 mph 85 % 0.0 in 0.0 W/m2 CLR
01:42 8.9 °F 6.7 °F 1024.3 in SE 5.6 mph 5.6 mph 86 % 0.0 in 0.0 W/m2 CLR
01:47 8.9 °F 6.7 °F 1024.3 in SSE 3.2 mph 3.2 mph 86 % 0.0 in 0.0 W/m2 CLR
01:52 8.9 °F 6.7 °F 1024.3 in SSE 5.6 mph 5.6 mph 86 % 0.0 in 0.0 W/m2 CLR
01:57 8.9 °F 6.7 °F 1024.3 in Calm     86 % 0.0 in 0.0 W/m2 CLR
02:02 8.3 °F 6.1 °F 1024.3 in Calm     86 % 0.0 in 0.0 W/m2 CLR
02:07 8.3 °F 6.1 °F 1024.3 in Calm     86 % 0.0 in 0.0 W/m2 CLR
02:12 8.3 °F 6.1 °F 1024.3 in Calm     86 % 0.0 in 0.0 W/m2 CLR
02:17 8.3 °F 6.1 °F 1024.3 in SSE 1.9 mph   86 % 0.0 in 0.0 W/m2 CLR
02:22 7.8 °F 5.6 °F 1024.3 in Calm     86 % 0.0 in 0.0 W/m2 CLR
02:27 7.8 °F 5.7 °F 1024.3 in Calm     87 % 0.0 in 0.0 W/m2 CLR
02:32 7.8 °F 5.7 °F 1024.3 in Calm     87 % 0.0 in 0.0 W/m2 CLR
02:37 7.8 °F 5.7 °F 1024.3 in Calm     87 % 0.0 in 0.0 W/m2 CLR
02:42 7.8 °F 5.9 °F 1024.3 in SE 5.6 mph 5.6 mph 88 % 0.0 in 0.0 W/m2 CLR
02:47 7.8 °F 5.9 °F 1024.3 in SE 3.2 mph 3.2 mph 88 % 0.0 in 0.0 W/m2 CLR
02:52 7.2 °F 5.4 °F 1024.3 in Calm     88 % 0.0 in 0.0 W/m2 CLR
02:57 7.2 °F 5.4 °F 1024.3 in Calm     88 % 0.0 in 0.0 W/m2 CLR
03:02 7.2 °F 5.4 °F 1024.3 in Calm     88 % 0.0 in 0.0 W/m2 CLR
03:08 7.2 °F 5.4 °F 1024.3 in SE 5.6 mph 5.6 mph 88 % 0.0 in 0.0 W/m2 CLR
03:13 7.8 °F 5.9 °F 1023.9 in SSE 5.6 mph 5.6 mph 88 % 0.0 in 0.0 W/m2 CLR
03:18 7.8 °F 6.1 °F 1023.9 in SSE 5.6 mph 5.6 mph 89 % 0.0 in 0.0 W/m2 CLR
03:23 7.8 °F 5.9 °F 1023.9 in Calm     88 % 0.0 in 0.0 W/m2 CLR
03:28 7.8 °F 5.9 °F 1023.9 in Calm     88 % 0.0 in 0.0 W/m2 CLR
03:38 7.2 °F 5.4 °F 1023.9 in Calm     88 % 0.0 in 0.0 W/m2 CLR
03:43 7.2 °F 5.4 °F 1023.9 in Calm     88 % 0.0 in 0.0 W/m2 CLR
03:48 7.2 °F 5.4 °F 1023.9 in Calm     88 % 0.0 in 0.0 W/m2 CLR
03:53 7.2 °F 5.4 °F 1023.9 in Calm     88 % 0.0 in 0.0 W/m2 CLR
03:58 7.2 °F 5.6 °F 1023.6 in Calm     89 % 0.0 in 0.0 W/m2 CLR
04:03 7.2 °F 5.4 °F 1023.9 in Calm     88 % 0.0 in 0.0 W/m2 CLR
04:13 7.8 °F 6.1 °F 1023.6 in Calm     89 % 0.0 in 0.0 W/m2 CLR
04:18 7.8 °F 6.1 °F 1023.6 in Calm     89 % 0.0 in 0.0 W/m2 CLR
04:23 7.2 °F 5.6 °F 1023.6 in Calm     89 % 0.0 in 0.0 W/m2 CLR
04:28 7.2 °F 5.6 °F 1023.6 in Calm     89 % 0.0 in 0.0 W/m2 CLR
04:33 7.2 °F 5.6 °F 1023.6 in Calm     89 % 0.0 in 0.0 W/m2 CLR
04:38 7.2 °F 5.6 °F 1023.6 in Calm     89 % 0.0 in 0.0 W/m2 CLR
04:43 7.2 °F 5.6 °F 1023.6 in Calm     89 % 0.0 in 0.0 W/m2 CLR
04:48 7.2 °F 5.6 °F 1023.6 in Calm     89 % 0.0 in 0.0 W/m2 CLR
04:53 7.2 °F 5.6 °F 1023.6 in Calm     89 % 0.0 in 0.0 W/m2 CLR
04:58 7.2 °F 5.6 °F 1023.6 in Calm     89 % 0.0 in 0.0 W/m2 CLR
05:03 7.2 °F 5.6 °F 1023.6 in Calm     89 % 0.0 in 0.0 W/m2 CLR
05:08 7.2 °F 5.7 °F 1023.6 in Calm     90 % 0.0 in 0.0 W/m2 CLR
05:13 7.2 °F 5.7 °F 1023.6 in Calm     90 % 0.0 in 0.0 W/m2 CLR
05:18 7.2 °F 5.7 °F 1023.6 in Calm     90 % 0.0 in 0.0 W/m2 CLR
05:23 7.2 °F 5.7 °F 1023.6 in Calm     90 % 0.0 in 0.0 W/m2 CLR
05:25 7.2 °F 5.7 °F 1023.6 in Calm     90 % 0.0 in 0.0 W/m2 CLR
05:30 7.2 °F 5.7 °F 1023.6 in Calm     90 % 0.0 in 0.0 W/m2 CLR
05:35 6.7 °F 5.2 °F 1023.6 in Calm     90 % 0.0 in 0.0 W/m2 CLR
05:40 6.7 °F 5.2 °F 1023.6 in Calm     90 % 0.0 in 0.0 W/m2 CLR
05:45 6.7 °F 5.2 °F 1023.6 in Calm     90 % 0.0 in 0.0 W/m2 CLR
05:50 6.7 °F 5.2 °F 1023.6 in Calm     90 % 0.0 in 0.0 W/m2 CLR
05:55 6.1 °F 4.6 °F 1023.6 in Calm     90 % 0.0 in 0.0 W/m2 CLR
06:00 6.1 °F 4.6 °F 1023.6 in Calm     90 % 0.0 in 0.0 W/m2 CLR
06:05 6.1 °F 4.6 °F 1023.6 in Calm     90 % 0.0 in 0.0 W/m2 CLR
06:06 6.1 °F 4.6 °F 1023.6 in Calm     90 % 0.0 in 0.0 W/m2 CLR
06:11 6.1 °F 4.8 °F 1023.6 in Calm     91 % 0.0 in 0.0 W/m2 CLR
06:16 6.1 °F 4.8 °F 1023.6 in Calm     91 % 0.0 in 0.0 W/m2 CLR
06:18 6.1 °F 4.8 °F 1023.6 in Calm     91 % 0.0 in 0.0 W/m2 CLR
06:23 6.1 °F 4.8 °F 1023.6 in Calm     91 % 0.0 in 0.0 W/m2 CLR
06:28 5.6 °F 4.1 °F 1023.6 in Calm     90 % 0.0 in 0.0 W/m2 CLR
06:33 5.6 °F 4.1 °F 1023.6 in Calm     90 % 0.0 in 0.0 W/m2 CLR
06:38 5.6 °F 4.2 °F 1023.6 in Calm     91 % 0.0 in 0.0 W/m2 CLR
06:43 5.6 °F 4.2 °F 1023.6 in Calm     91 % 0.0 in 0.0 W/m2 CLR
06:48 5.6 °F 4.2 °F 1023.6 in Calm     91 % 0.0 in 0.0 W/m2 CLR
06:53 5.6 °F 4.2 °F 1023.6 in Calm     91 % 0.0 in 0.0 W/m2 CLR
06:58 5.6 °F 4.2 °F 1023.6 in Calm     91 % 0.0 in 0.0 W/m2 CLR
07:03 5.6 °F 4.2 °F 1023.9 in Calm     91 % 0.0 in 0.0 W/m2 CLR
07:08 5.6 °F 4.2 °F 1023.9 in Calm     91 % 0.0 in 0.0 W/m2 CLR
07:13 5.6 °F 4.2 °F 1023.6 in Calm     91 % 0.0 in 0.0 W/m2 CLR
07:18 5.6 °F 4.1 °F 1023.9 in Calm     90 % 0.0 in 0.0 W/m2 CLR
07:23 5.6 °F 4.2 °F 1023.9 in Calm     91 % 0.0 in 0.0 W/m2 CLR
07:28 5.6 °F 4.2 °F 1023.6 in Calm     91 % 0.0 in 0.0 W/m2 CLR
07:33 5.0 °F 3.7 °F 1023.6 in Calm     91 % 0.0 in 0.0 W/m2 CLR
07:38 5.0 °F 3.7 °F 1023.6 in Calm     91 % 0.0 in 0.0 W/m2 CLR
07:43 5.0 °F 3.7 °F 1023.9 in Calm     91 % 0.0 in 0.0 W/m2 CLR
07:48 5.0 °F 3.7 °F 1023.9 in Calm     91 % 0.0 in 0.0 W/m2 CLR
07:53 5.0 °F 3.7 °F 1023.9 in Calm     91 % 0.0 in 0.0 W/m2 CLR
07:58 5.0 °F 3.7 °F 1023.9 in Calm     91 % 0.0 in 0.0 W/m2 CLR
08:03 5.0 °F 3.7 °F 1023.9 in Calm     91 % 0.0 in 5.0 W/m2 OVC
08:08 5.0 °F 3.7 °F 1023.9 in Calm     91 % 0.0 in 7.0 W/m2 BKN
08:13 5.0 °F 3.8 °F 1023.9 in Calm     92 % 0.0 in 11.0 W/m2 BKN
08:18 5.0 °F 3.7 °F 1023.9 in Calm     91 % 0.0 in 12.0 W/m2 BKN
08:23 5.0 °F 3.7 °F 1023.9 in Calm     91 % 0.0 in 14.0 W/m2 BKN
08:28 5.0 °F 3.7 °F 1023.9 in Calm     91 % 0.0 in 18.0 W/m2 BKN
08:33 5.0 °F 3.7 °F 1023.9 in Calm     91 % 0.0 in 23.0 W/m2 BKN
08:38 5.6 °F 4.2 °F 1023.9 in Calm     91 % 0.0 in 30.0 W/m2 BKN
08:43 5.6 °F 4.2 °F 1023.9 in Calm     91 % 0.0 in 42.0 W/m2 BKN
08:48 5.6 °F 4.2 °F 1023.9 in Calm     91 % 0.0 in 49.0 W/m2 SCT
08:53 5.6 °F 4.2 °F 1023.9 in Calm     91 % 0.0 in 70.0 W/m2 FEW
08:58 6.1 °F 4.6 °F 1024.3 in Calm     90 % 0.0 in 84.0 W/m2 FEW
09:03 6.1 °F 4.6 °F 1024.3 in Calm     90 % 0.0 in 97.0 W/m2 CLR
09:04 6.1 °F 4.6 °F 1024.3 in Calm     90 % 0.0 in 97.0 W/m2 FEW
09:14 6.7 °F 4.8 °F 1024.3 in Calm     88 % 0.0 in 104.0 W/m2 CLR
09:19 7.2 °F 5.2 °F 1023.9 in Calm     87 % 0.0 in 100.0 W/m2 CLR
09:24 7.8 °F 5.6 °F 1024.3 in Calm     86 % 0.0 in 118.0 W/m2 CLR
09:29 7.8 °F 5.4 °F 1024.3 in Calm     85 % 0.0 in 188.0 W/m2 CLR
09:34 8.3 °F 5.9 °F 1024.3 in Calm     85 % 0.0 in 207.0 W/m2 CLR
09:44 8.9 °F 6.2 °F 1024.3 in Calm     83 % 0.0 in 244.0 W/m2 CLR
09:49 9.4 °F 6.3 °F 1024.3 in Calm     81 % 0.0 in 260.0 W/m2 CLR
09:54 10.0 °F 6.7 °F 1024.3 in Calm     80 % 0.0 in 278.0 W/m2 CLR
09:59 10.6 °F 7.1 °F 1024.3 in Calm     79 % 0.0 in 294.0 W/m2 CLR
10:04 10.6 °F 7.1 °F 1024.3 in Calm     79 % 0.0 in 308.0 W/m2 CLR
10:09 11.1 °F 7.6 °F 1024.3 in Calm     79 % 0.0 in 322.0 W/m2 CLR
10:14 11.7 °F 7.9 °F 1023.9 in Calm     78 % 0.0 in 339.0 W/m2 CLR
10:19 12.2 °F 8.3 °F 1023.9 in Calm     77 % 0.0 in 353.0 W/m2 CLR
10:24 12.8 °F 8.8 °F 1023.9 in Calm     77 % 0.0 in 367.0 W/m2 CLR
10:29 12.8 °F 8.7 °F 1023.9 in Calm     76 % 0.0 in 380.0 W/m2 CLR
10:34 13.3 °F 9.0 °F 1023.9 in Calm     75 % 0.0 in 397.0 W/m2 CLR
10:44 13.9 °F 8.7 °F 1023.9 in Calm     71 % 0.0 in 420.0 W/m2 CLR
10:49 14.4 °F 8.6 °F 1023.9 in Calm     68 % 0.0 in 434.0 W/m2 CLR
10:54 15.0 °F 8.7 °F 1023.9 in Calm     66 % 0.0 in 450.0 W/m2 CLR
10:59 15.6 °F 8.6 °F 1023.9 in SE 1.9 mph 1.9 mph 63 % 0.0 in 461.0 W/m2 CLR
11:04 16.1 °F 8.3 °F 1023.9 in Calm     60 % 0.0 in 473.0 W/m2 CLR
11:09 16.1 °F 8.1 °F 1023.9 in ESE 7.4 mph 7.4 mph 59 % 0.0 in 483.0 W/m2 CLR
11:14 16.7 °F 7.8 °F 1023.9 in SSW 9.3 mph 9.3 mph 56 % 0.0 in 497.0 W/m2 CLR
11:19 17.2 °F 8.4 °F 1023.9 in South 3.2 mph 3.2 mph 56 % 0.0 in 506.0 W/m2 CLR
11:29 17.8 °F 7.5 °F 1023.6 in WSW 14.8 mph 14.8 mph 51 % 0.0 in 531.0 W/m2 CLR
11:35 18.3 °F 8.3 °F 1023.6 in WSW 7.4 mph 7.4 mph 52 % 0.0 in 540.0 W/m2 CLR
11:40 18.3 °F 8.0 °F 1023.6 in West 14.5 mph 14.5 mph 51 % 0.0 in 552.0 W/m2 CLR
11:45 18.9 °F 8.2 °F 1023.6 in SW 13.0 mph 13.0 mph 50 % 0.0 in 563.0 W/m2 CLR
11:50 18.9 °F 7.9 °F 1023.6 in SW 9.3 mph 9.3 mph 49 % 0.0 in 571.0 W/m2 CLR
11:55 19.4 °F 8.2 °F 1023.6 in WSW 13.0 mph 13.0 mph 48 % 0.0 in 578.0 W/m2 CLR
12:00 19.4 °F 8.2 °F 1023.6 in West 11.3 mph 11.3 mph 48 % 0.0 in 591.0 W/m2 CLR
12:05 20.0 °F 8.3 °F 1023.6 in WSW 16.7 mph 16.7 mph 47 % 0.0 in 598.0 W/m2 CLR
12:10 20.6 °F 8.8 °F 1023.6 in SSW 7.4 mph 7.4 mph 47 % 0.0 in 605.0 W/m2 CLR
12:15 20.6 °F 8.8 °F 1023.6 in Calm   0.6 mph 47 % 0.0 in 613.0 W/m2 CLR
12:20 20.6 °F 8.2 °F 1023.6 in WSW 5.6 mph   45 % 0.0 in 621.0 W/m2 CLR
12:25 21.1 °F 8.7 °F 1023.6 in WSW 14.8 mph 14.8 mph 45 % 0.0 in 629.0 W/m2 CLR
12:30 21.1 °F 8.4 °F 1023.2 in SW 14.8 mph 14.8 mph 44 % 0.0 in 635.0 W/m2 CLR
12:35 21.1 °F 8.7 °F 1023.2 in SW 11.1 mph 11.1 mph 45 % 0.0 in 640.0 W/m2 CLR
12:40 21.1 °F 8.4 °F 1023.2 in SSW 13.0 mph 13.0 mph 44 % 0.0 in 645.0 W/m2 CLR
12:45 21.1 °F 8.1 °F 1023.2 in Calm     43 % 0.0 in 652.0 W/m2 CLR
12:50 21.1 °F 8.1 °F 1023.2 in South 7.4 mph 7.4 mph 43 % 0.0 in 656.0 W/m2 CLR
12:55 21.1 °F 8.1 °F 1023.2 in SW 5.6 mph   43 % 0.0 in 661.0 W/m2 CLR
13:00 21.7 °F 8.2 °F 1023.2 in SSW 11.1 mph 11.1 mph 42 % 0.0 in 668.0 W/m2 CLR
13:05 22.2 °F 8.7 °F 1023.2 in Calm     42 % 0.0 in 670.0 W/m2 CLR
13:10 22.2 °F 8.3 °F 1023.2 in West 6.4 mph 6.4 mph 41 % 0.0 in 675.0 W/m2 CLR
13:15 22.2 °F 8.3 °F 1023.2 in Calm     41 % 0.0 in 679.0 W/m2 CLR
13:20 21.7 °F 7.8 °F 1022.9 in SSW 5.6 mph 5.6 mph 41 % 0.0 in 682.0 W/m2 CLR
13:25 21.7 °F 7.8 °F 1022.9 in West 3.7 mph 3.7 mph 41 % 0.0 in 680.0 W/m2 CLR
13:30 22.2 °F 7.9 °F 1022.9 in SSW 5.6 mph 5.6 mph 40 % 0.0 in 682.0 W/m2 CLR
13:35 21.7 °F 7.8 °F 1022.9 in West 12.9 mph 12.9 mph 41 % 0.0 in 686.0 W/m2 CLR
13:40 22.2 °F 8.3 °F 1022.9 in SW 4.8 mph 4.8 mph 41 % 0.0 in 686.0 W/m2 CLR
13:45 22.2 °F 7.9 °F 1022.6 in Calm     40 % 0.0 in 686.0 W/m2 CLR
13:50 22.2 °F 7.9 °F 1022.6 in West 11.1 mph 11.1 mph 40 % 0.0 in 687.0 W/m2 CLR
13:55 23.3 °F 9.3 °F 1022.6 in NW 3.7 mph   41 % 0.0 in 687.0 W/m2 CLR
13:57 23.3 °F 8.9 °F 1022.6 in NW 9.7 mph 9.7 mph 40 % 0.0 in 687.0 W/m2 CLR
14:02 22.8 °F 8.4 °F 1022.6 in SSW 16.7 mph 16.7 mph 40 % 0.0 in 687.0 W/m2 CLR
14:07 22.8 °F 8.1 °F 1022.6 in WSW 14.8 mph 14.8 mph 39 % 0.0 in 686.0 W/m2 CLR
14:12 23.3 °F 8.6 °F 1022.2 in WSW 11.1 mph 11.1 mph 39 % 0.0 in 682.0 W/m2 CLR
14:17 23.3 °F 8.2 °F 1022.2 in Calm     38 % 0.0 in 682.0 W/m2 CLR
14:22 23.9 °F 7.9 °F 1022.2 in NW 8.0 mph 8.0 mph 36 % 0.0 in 680.0 W/m2 CLR
14:27 23.3 °F 7.8 °F 1022.2 in WSW 9.3 mph 9.3 mph 37 % 0.0 in 675.0 W/m2 CLR
14:32 23.9 °F 7.5 °F 1022.2 in SW 17.7 mph 17.7 mph 35 % 0.0 in 673.0 W/m2 CLR
14:37 23.9 °F 7.5 °F 1022.2 in SSW 16.1 mph 16.1 mph 35 % 0.0 in 673.0 W/m2 CLR
14:42 23.9 °F 6.6 °F 1021.9 in SW 11.1 mph 11.1 mph 33 % 0.0 in 668.0 W/m2 CLR
14:47 23.9 °F 6.6 °F 1021.9 in WSW 13.0 mph 13.0 mph 33 % 0.0 in 664.0 W/m2 CLR
14:52 23.9 °F 6.2 °F 1021.9 in West 14.8 mph 14.8 mph 32 % 0.0 in 657.0 W/m2 CLR
14:57 23.9 °F 6.2 °F 1021.9 in WSW 14.8 mph 14.8 mph 32 % 0.0 in 652.0 W/m2 CLR
15:02 24.4 °F 7.1 °F 1021.6 in WSW 16.7 mph 16.7 mph 33 % 0.0 in 649.0 W/m2 CLR
15:07 24.4 °F 6.7 °F 1021.6 in SW 14.8 mph 14.8 mph 32 % 0.0 in 643.0 W/m2 CLR
15:12 24.4 °F 6.7 °F 1021.6 in SSW 14.8 mph 14.8 mph 32 % 0.0 in 636.0 W/m2 CLR
15:17 24.4 °F 6.2 °F 1021.6 in WSW 16.7 mph 16.7 mph 31 % 0.0 in 629.0 W/m2 CLR
15:22 24.4 °F 6.2 °F 1021.2 in SW 11.3 mph 11.3 mph 31 % 0.0 in 624.0 W/m2 CLR
15:27 24.4 °F 5.7 °F 1021.2 in SSW 5.6 mph 5.6 mph 30 % 0.0 in 619.0 W/m2 CLR
15:32 24.4 °F 5.2 °F 1021.2 in West 5.6 mph   29 % 0.0 in 612.0 W/m2 CLR
15:37 25.0 °F 5.2 °F 1021.2 in SSW 5.6 mph   28 % 0.0 in 601.0 W/m2 CLR
15:42 25.0 °F 4.7 °F 1020.9 in WSW 7.4 mph 7.4 mph 27 % 0.0 in 591.0 W/m2 CLR
15:47 25.0 °F 4.2 °F 1020.9 in WSW 14.5 mph 14.5 mph 26 % 0.0 in 584.0 W/m2 CLR
15:52 24.4 °F 4.2 °F 1020.9 in WSW 8.0 mph 8.0 mph 27 % 0.0 in 577.0 W/m2 CLR
15:57 25.0 °F 4.2 °F 1020.9 in SSW 13.0 mph 13.0 mph 26 % 0.0 in 563.0 W/m2 CLR
15:59 25.0 °F 3.6 °F 1020.9 in WSW 9.3 mph 9.3 mph 25 % 0.0 in 559.0 W/m2 CLR
16:04 25.0 °F 4.2 °F 1020.9 in SW 13.0 mph 13.0 mph 26 % 0.0 in 548.0 W/m2 CLR
16:09 25.0 °F 4.2 °F 1020.9 in SW 11.1 mph 11.1 mph 26 % 0.0 in 538.0 W/m2 CLR
16:14 25.0 °F 4.7 °F 1020.9 in Calm     27 % 0.0 in 526.0 W/m2 CLR
16:19 25.0 °F 5.2 °F 1020.9 in SW 12.9 mph 12.9 mph 28 % 0.0 in 513.0 W/m2 CLR
16:24 25.0 °F 4.7 °F 1020.5 in SW 16.7 mph 16.7 mph 27 % 0.0 in 503.0 W/m2 CLR
16:29 25.0 °F 4.7 °F 1020.5 in SW 7.4 mph 7.4 mph 27 % 0.0 in 492.0 W/m2 CLR
16:34 25.0 °F 5.2 °F 1020.5 in WSW 14.5 mph 14.5 mph 28 % 0.0 in 478.0 W/m2 CLR
16:39 25.0 °F 4.7 °F 1020.5 in Calm     27 % 0.0 in 464.0 W/m2 CLR
16:44 25.0 °F 5.2 °F 1020.5 in West 13.0 mph 13.0 mph 28 % 0.0 in 454.0 W/m2 CLR
16:49 24.4 °F 4.7 °F 1020.5 in WNW 8.0 mph 8.0 mph 28 % 0.0 in 441.0 W/m2 CLR
16:55 24.4 °F 3.7 °F 1020.5 in West 11.3 mph 11.3 mph 26 % 0.0 in 427.0 W/m2 CLR
17:00 24.4 °F 4.2 °F 1020.5 in South 5.6 mph   27 % 0.0 in 410.0 W/m2 CLR
17:05 25.0 °F 4.7 °F 1020.2 in Calm     27 % 0.0 in 396.0 W/m2 CLR
17:10 25.0 °F 4.2 °F 1020.2 in Calm     26 % 0.0 in 383.0 W/m2 CLR
17:15 24.4 °F 3.7 °F 1020.2 in WNW 14.8 mph 14.8 mph 26 % 0.0 in 369.0 W/m2 CLR
17:20 25.0 °F 4.2 °F 1020.2 in Calm   0.2 mph 26 % 0.0 in 353.0 W/m2 CLR
17:25 25.0 °F 4.2 °F 1020.2 in Calm     26 % 0.0 in 339.0 W/m2 CLR
17:30 24.4 °F 3.1 °F 1020.2 in NNW 1.9 mph   25 % 0.0 in 325.0 W/m2 CLR
17:35 24.4 °F 3.1 °F 1020.2 in WNW 5.6 mph 5.6 mph 25 % 0.0 in 309.0 W/m2 CLR
17:40 24.4 °F 3.1 °F 1020.2 in Calm     25 % 0.0 in 294.0 W/m2 CLR
17:50 23.9 °F 2.7 °F 1020.2 in West 11.1 mph 11.1 mph 25 % 0.0 in 258.0 W/m2 CLR
17:55 23.9 °F 2.1 °F 1020.2 in West 9.3 mph 9.3 mph 24 % 0.0 in 243.0 W/m2 CLR
18:00 23.9 °F 2.7 °F 1019.9 in WNW 9.3 mph 9.3 mph 25 % 0.0 in 229.0 W/m2 CLR
18:05 23.3 °F 2.2 °F 1019.9 in Calm     25 % 0.0 in 207.0 W/m2 CLR
18:10 23.3 °F 2.2 °F 1020.2 in Calm     25 % 0.0 in 185.0 W/m2 CLR
18:15 22.8 °F 1.7 °F 1019.9 in Calm     25 % 0.0 in 167.0 W/m2 CLR
18:20 22.2 °F 1.2 °F 1020.2 in West 11.3 mph 11.3 mph 25 % 0.0 in 149.0 W/m2 CLR
18:25 22.2 °F 0.7 °F 1020.2 in Calm     24 % 0.0 in 134.0 W/m2 CLR
18:31 21.7 °F 0.2 °F 1020.2 in Calm     24 % 0.0 in 113.0 W/m2 CLR
18:36 21.1 °F -0.3 °F 1020.2 in Calm     24 % 0.0 in 97.0 W/m2 CLR
18:41 20.6 °F -0.2 °F 1020.2 in Calm     25 % 0.0 in 81.0 W/m2 FEW
18:46 20.0 °F -0.7 °F 1020.2 in Calm     25 % 0.0 in 60.0 W/m2 SCT
18:56 18.9 °F -1.6 °F 1020.2 in Calm     25 % 0.0 in 40.0 W/m2 BKN
19:01 18.3 °F -1.6 °F 1020.2 in Calm     26 % 0.0 in 26.0 W/m2 BKN
19:05 17.8 °F -2.0 °F 1020.2 in West 1.9 mph   26 % 0.0 in 19.0 W/m2 BKN
19:11 17.2 °F -1.9 °F 1020.2 in Calm     27 % 0.0 in 14.0 W/m2 BKN
19:16 16.1 °F -2.4 °F 1020.2 in Calm     28 % 0.0 in 12.0 W/m2 BKN
19:21 16.1 °F -2.4 °F 1020.5 in Calm     28 % 0.0 in 9.0 W/m2 BKN
19:26 15.6 °F -2.4 °F 1020.5 in Calm     29 % 0.0 in 7.0 W/m2 BKN
19:36 15.0 °F -2.4 °F 1020.5 in Calm     30 % 0.0 in 0.0 W/m2 OVC
19:41 14.4 °F -2.5 °F 1020.5 in Calm     31 % 0.0 in 0.0 W/m2 CLR
19:46 14.4 °F -2.1 °F 1020.5 in Calm     32 % 0.0 in 0.0 W/m2 CLR
19:51 14.4 °F -2.1 °F 1020.9 in Calm     32 % 0.0 in 0.0 W/m2 CLR
20:01 15.0 °F -0.8 °F 1020.9 in Calm     34 % 0.0 in 0.0 W/m2 CLR
20:06 14.4 °F -0.8 °F 1020.9 in Calm     35 % 0.0 in 0.0 W/m2 CLR
20:11 14.4 °F -0.8 °F 1020.9 in Calm     35 % 0.0 in 0.0 W/m2 CLR
20:16 13.9 °F -0.9 °F 1020.9 in Calm     36 % 0.0 in 0.0 W/m2 CLR
20:21 13.9 °F -0.9 °F 1020.9 in Calm     36 % 0.0 in 0.0 W/m2 CLR
20:26 13.3 °F -1.1 °F 1020.9 in Calm     37 % 0.0 in 0.0 W/m2 CLR
20:31 13.3 °F -0.7 °F 1020.9 in Calm     38 % 0.0 in 0.0 W/m2 CLR
20:36 12.8 °F -1.2 °F 1021.2 in Calm     38 % 0.0 in 0.0 W/m2 CLR
20:46 12.2 °F -1.0 °F 1021.2 in Calm     40 % 0.0 in 0.0 W/m2 CLR
20:51 11.7 °F -1.2 °F 1021.2 in Calm     41 % 0.0 in 0.0 W/m2 CLR
20:56 11.7 °F -0.8 °F 1021.2 in Calm     42 % 0.0 in 0.0 W/m2 CLR
21:01 11.1 °F -1.3 °F 1021.2 in Calm     42 % 0.0 in 0.0 W/m2 CLR
21:06 11.1 °F -1.3 °F 1021.2 in Calm     42 % 0.0 in 0.0 W/m2 CLR
21:11 10.6 °F -1.5 °F 1021.2 in Calm     43 % 0.0 in 0.0 W/m2 CLR
21:16 10.6 °F -1.5 °F 1021.2 in Calm     43 % 0.0 in 0.0 W/m2 CLR
21:21 10.0 °F -1.7 °F 1021.6 in Calm     44 % 0.0 in 0.0 W/m2 CLR
21:26 10.0 °F -1.7 °F 1021.6 in Calm     44 % 0.0 in 0.0 W/m2 CLR
21:31 9.4 °F -1.9 °F 1021.6 in SE 9.7 mph 9.7 mph 45 % 0.0 in 0.0 W/m2 CLR
21:36 9.4 °F -1.9 °F 1021.6 in SSE 3.7 mph 3.7 mph 45 % 0.0 in 0.0 W/m2 CLR
21:41 8.9 °F -2.1 °F 1021.6 in SE 7.4 mph 7.4 mph 46 % 0.0 in 0.0 W/m2 CLR
21:46 8.9 °F -2.1 °F 1021.6 in ESE 5.6 mph 5.6 mph 46 % 0.0 in 0.0 W/m2 CLR
21:51 8.9 °F -2.1 °F 1021.6 in SE 5.6 mph 5.6 mph 46 % 0.0 in 0.0 W/m2 CLR
22:01 8.3 °F -2.3 °F 1021.6 in Calm     47 % 0.0 in 0.0 W/m2 CLR
22:06 8.3 °F -2.3 °F 1021.6 in SE 9.3 mph 9.3 mph 47 % 0.0 in 0.0 W/m2 CLR
22:11 8.3 °F -2.3 °F 1021.6 in SE 5.6 mph 5.6 mph 47 % 0.0 in 0.0 W/m2 CLR
22:16 8.3 °F -2.1 °F 1021.9 in Calm     48 % 0.0 in 0.0 W/m2 CLR
22:21 8.3 °F -1.8 °F 1021.6 in SE 3.7 mph 3.7 mph 49 % 0.0 in 0.0 W/m2 CLR
22:26 7.8 °F -2.3 °F 1021.9 in Calm     49 % 0.0 in 0.0 W/m2 CLR
22:31 7.8 °F -2.3 °F 1021.6 in Calm     49 % 0.0 in 0.0 W/m2 CLR
22:36 7.8 °F -2.0 °F 1021.6 in Calm     50 % 0.0 in 0.0 W/m2 CLR
22:41 7.8 °F -2.0 °F 1021.9 in Calm     50 % 0.0 in 0.0 W/m2 CLR
22:46 7.8 °F -1.7 °F 1021.9 in Calm     51 % 0.0 in 0.0 W/m2 CLR
22:51 7.8 °F -1.7 °F 1021.9 in Calm     51 % 0.0 in 0.0 W/m2 CLR
22:56 7.2 °F -2.3 °F 1021.9 in SSE 5.6 mph 5.6 mph 51 % 0.0 in 0.0 W/m2 CLR
23:01 7.2 °F -2.5 °F 1021.9 in SE 5.6 mph   50 % 0.0 in 0.0 W/m2 CLR
23:06 7.2 °F -2.3 °F 1021.9 in Calm     51 % 0.0 in 0.0 W/m2 CLR
23:11 6.7 °F -2.8 °F 1021.9 in Calm     51 % 0.0 in 0.0 W/m2 CLR
23:16 6.7 °F -2.5 °F 1021.9 in Calm     52 % 0.0 in 0.0 W/m2 CLR
23:21 6.7 °F -2.5 °F 1022.2 in SSE 3.7 mph 3.7 mph 52 % 0.0 in 0.0 W/m2 CLR
23:26 6.7 °F -2.5 °F 1022.2 in Calm     52 % 0.0 in 0.0 W/m2 CLR
23:31 6.7 °F -2.5 °F 1022.2 in SE 1.9 mph   52 % 0.0 in 0.0 W/m2 CLR
23:36 6.1 °F -2.8 °F 1022.2 in Calm     53 % 0.0 in 0.0 W/m2 CLR
23:41 6.1 °F -2.5 °F 1022.2 in Calm     54 % 0.0 in 0.0 W/m2 CLR
23:46 6.1 °F -2.3 °F 1022.2 in Calm     55 % 0.0 in 0.0 W/m2 CLR
23:51 6.1 °F -2.3 °F 1022.2 in Calm     55 % 0.0 in 0.0 W/m2 CLR
Lo Temps de Massalio
Compliments of Weather Underground - 1.25 mb